KAIK/AIK METAR and TAF weather

Enter ICAO airport designator
Station Type Date Time Source
KAIK METAR 2022/12/04 05:15 UTC NOAA

KAIK 040515Z AUTO 31004KT 5SM BR OVC004 14/14 A3025 RMK AO2 T01450143


Station Type Date Time Source
KAIK Decoded METAR 2022/12/04 05:15 UTC NOAA

Station name not available
Dec 04, 2022 - 12:15 AM EST / 2022.12.04 0515 UTC
Wind: from the NW (310 degrees) at 5 MPH (4 KT):0
Visibility: 5 mile(s):0
Sky conditions: overcast
Weather: mist
Temperature: 58.1 F (14.5 C)
Dew Point: 57.7 F (14.3 C)
Relative Humidity: 98%
Pressure (altimeter): 30.25 in. Hg (1024 hPa)
ob: KAIK 040515Z AUTO 31004KT 5SM BR OVC004 14/14 A3025 RMK AO2 T01450143
cycle: 5

Station Type Date Time Source
KAIK TAF UTC NOAA

Error!

Example: see airport list